sensor_id;sensor_type;location;lat;lon;timestamp;temperature;humidity
19152;DHT22;9708;53.114;9.388;2023-11-22T00:01:06;3.20;99.90
19152;DHT22;9708;53.114;9.388;2023-11-22T00:03:32;3.20;99.90
19152;DHT22;9708;53.114;9.388;2023-11-22T00:05:59;3.00;99.90
19152;DHT22;9708;53.114;9.388;2023-11-22T00:08:28;2.90;99.90
19152;DHT22;9708;53.114;9.388;2023-11-22T00:10:55;2.90;99.90
19152;DHT22;9708;53.114;9.388;2023-11-22T00:13:22;2.80;99.90
19152;DHT22;9708;53.114;9.388;2023-11-22T00:15:49;2.80;99.90
19152;DHT22;9708;53.114;9.388;2023-11-22T00:18:16;2.70;99.90
19152;DHT22;9708;53.114;9.388;2023-11-22T00:20:42;2.70;99.90
19152;DHT22;9708;53.114;9.388;2023-11-22T00:23:09;2.60;99.90
19152;DHT22;9708;53.114;9.388;2023-11-22T00:25:37;2.60;99.90
19152;DHT22;9708;53.114;9.388;2023-11-22T00:28:04;2.60;99.90
19152;DHT22;9708;53.114;9.388;2023-11-22T00:30:32;2.60;99.90
19152;DHT22;9708;53.114;9.388;2023-11-22T00:32:59;2.60;99.90
19152;DHT22;9708;53.114;9.388;2023-11-22T00:35:25;2.50;99.90
19152;DHT22;9708;53.114;9.388;2023-11-22T00:37:52;2.40;99.90
19152;DHT22;9708;53.114;9.388;2023-11-22T00:40:19;2.40;99.90
19152;DHT22;9708;53.114;9.388;2023-11-22T00:42:47;2.30;99.90
19152;DHT22;9708;53.114;9.388;2023-11-22T00:45:14;2.30;99.90
19152;DHT22;9708;53.114;9.388;2023-11-22T00:47:41;2.20;99.90
19152;DHT22;9708;53.114;9.388;2023-11-22T00:50:09;2.20;99.90
19152;DHT22;9708;53.114;9.388;2023-11-22T00:52:35;2.10;99.90
19152;DHT22;9708;53.114;9.388;2023-11-22T00:55:03;2.10;99.90
19152;DHT22;9708;53.114;9.388;2023-11-22T00:57:30;2.10;99.90
19152;DHT22;9708;53.114;9.388;2023-11-22T00:59:59;2.10;99.90
19152;DHT22;9708;53.114;9.388;2023-11-22T01:02:25;2.10;99.90
19152;DHT22;9708;53.114;9.388;2023-11-22T01:04:52;2.10;99.90
19152;DHT22;9708;53.114;9.388;2023-11-22T01:07:19;2.00;99.90
19152;DHT22;9708;53.114;9.388;2023-11-22T01:09:46;2.00;99.90
19152;DHT22;9708;53.114;9.388;2023-11-22T01:12:12;1.90;99.90
19152;DHT22;9708;53.114;9.388;2023-11-22T01:14:39;1.80;99.90
19152;DHT22;9708;53.114;9.388;2023-11-22T01:17:07;1.70;99.90
19152;DHT22;9708;53.114;9.388;2023-11-22T01:19:34;1.70;99.90
19152;DHT22;9708;53.114;9.388;2023-11-22T01:22:01;1.60;99.90
19152;DHT22;9708;53.114;9.388;2023-11-22T01:24:27;1.50;99.90
19152;DHT22;9708;53.114;9.388;2023-11-22T01:26:54;1.50;99.90
19152;DHT22;9708;53.114;9.388;2023-11-22T01:29:21;1.50;99.90
19152;DHT22;9708;53.114;9.388;2023-11-22T01:31:49;1.50;99.90
19152;DHT22;9708;53.114;9.388;2023-11-22T01:34:17;1.50;99.90
19152;DHT22;9708;53.114;9.388;2023-11-22T01:36:44;1.40;99.90
19152;DHT22;9708;53.114;9.388;2023-11-22T01:39:11;1.40;99.90
19152;DHT22;9708;53.114;9.388;2023-11-22T01:41:39;1.40;99.90
19152;DHT22;9708;53.114;9.388;2023-11-22T01:44:07;1.40;99.90
19152;DHT22;9708;53.114;9.388;2023-11-22T01:46:34;1.40;99.90
19152;DHT22;9708;53.114;9.388;2023-11-22T01:49:01;1.40;99.90
19152;DHT22;9708;53.114;9.388;2023-11-22T01:51:30;1.40;99.90
19152;DHT22;9708;53.114;9.388;2023-11-22T01:53:57;1.30;99.90
19152;DHT22;9708;53.114;9.388;2023-11-22T01:56:26;1.40;99.90
19152;DHT22;9708;53.114;9.388;2023-11-22T01:58:54;1.30;99.90
19152;DHT22;9708;53.114;9.388;2023-11-22T02:01:22;1.40;99.90
19152;DHT22;9708;53.114;9.388;2023-11-22T02:03:48;1.30;99.90
19152;DHT22;9708;53.114;9.388;2023-11-22T02:06:17;1.30;99.90
19152;DHT22;9708;53.114;9.388;2023-11-22T02:08:46;1.30;99.90
19152;DHT22;9708;53.114;9.388;2023-11-22T02:11:13;1.20;99.90
19152;DHT22;9708;53.114;9.388;2023-11-22T02:13:39;1.20;99.90
19152;DHT22;9708;53.114;9.388;2023-11-22T02:16:06;1.20;99.90
19152;DHT22;9708;53.114;9.388;2023-11-22T02:18:33;1.10;99.90
19152;DHT22;9708;53.114;9.388;2023-11-22T02:21:02;1.00;99.90
19152;DHT22;9708;53.114;9.388;2023-11-22T02:23:30;1.00;99.90
19152;DHT22;9708;53.114;9.388;2023-11-22T02:25:58;0.90;99.90
19152;DHT22;9708;53.114;9.388;2023-11-22T02:28:26;0.90;99.90
19152;DHT22;9708;53.114;9.388;2023-11-22T02:30:52;1.00;99.90
19152;DHT22;9708;53.114;9.388;2023-11-22T02:33:20;1.00;99.90
19152;DHT22;9708;53.114;9.388;2023-11-22T02:35:46;0.90;99.90
19152;DHT22;9708;53.114;9.388;2023-11-22T02:38:13;1.00;99.90
19152;DHT22;9708;53.114;9.388;2023-11-22T02:40:41;1.00;99.90
19152;DHT22;9708;53.114;9.388;2023-11-22T02:43:08;0.90;99.90
19152;DHT22;9708;53.114;9.388;2023-11-22T02:45:36;0.90;99.90
19152;DHT22;9708;53.114;9.388;2023-11-22T02:48:04;0.90;99.90
19152;DHT22;9708;53.114;9.388;2023-11-22T02:50:35;0.90;99.90
19152;DHT22;9708;53.114;9.388;2023-11-22T02:53:02;0.90;99.90
19152;DHT22;9708;53.114;9.388;2023-11-22T02:55:29;1.00;99.90
19152;DHT22;9708;53.114;9.388;2023-11-22T02:57:57;1.00;99.90
19152;DHT22;9708;53.114;9.388;2023-11-22T03:00:24;1.00;99.90
19152;DHT22;9708;53.114;9.388;2023-11-22T03:02:51;1.00;99.90
19152;DHT22;9708;53.114;9.388;2023-11-22T03:05:19;1.00;99.90
19152;DHT22;9708;53.114;9.388;2023-11-22T03:07:47;0.90;99.90
19152;DHT22;9708;53.114;9.388;2023-11-22T03:10:14;0.90;99.90
19152;DHT22;9708;53.114;9.388;2023-11-22T03:12:43;0.90;99.90
19152;DHT22;9708;53.114;9.388;2023-11-22T03:15:11;0.80;99.90
19152;DHT22;9708;53.114;9.388;2023-11-22T03:17:38;0.90;99.90
19152;DHT22;9708;53.114;9.388;2023-11-22T03:20:06;0.90;99.90
19152;DHT22;9708;53.114;9.388;2023-11-22T03:22:34;0.90;99.90
19152;DHT22;9708;53.114;9.388;2023-11-22T03:25:02;0.90;99.90
19152;DHT22;9708;53.114;9.388;2023-11-22T03:27:29;0.90;99.90
19152;DHT22;9708;53.114;9.388;2023-11-22T03:29:56;0.90;99.90
19152;DHT22;9708;53.114;9.388;2023-11-22T03:32:24;0.90;99.90
19152;DHT22;9708;53.114;9.388;2023-11-22T03:34:50;0.90;99.90
19152;DHT22;9708;53.114;9.388;2023-11-22T03:37:17;0.80;99.90
19152;DHT22;9708;53.114;9.388;2023-11-22T03:39:44;0.70;99.90
19152;DHT22;9708;53.114;9.388;2023-11-22T03:42:14;0.80;99.90
19152;DHT22;9708;53.114;9.388;2023-11-22T03:44:41;0.80;99.90
19152;DHT22;9708;53.114;9.388;2023-11-22T03:47:09;0.80;99.90
19152;DHT22;9708;53.114;9.388;2023-11-22T03:49:38;0.80;99.90
19152;DHT22;9708;53.114;9.388;2023-11-22T03:52:05;0.80;99.90
19152;DHT22;9708;53.114;9.388;2023-11-22T03:54:31;0.80;99.90
19152;DHT22;9708;53.114;9.388;2023-11-22T03:56:59;0.80;99.90
19152;DHT22;9708;53.114;9.388;2023-11-22T03:59:25;0.80;99.90
19152;DHT22;9708;53.114;9.388;2023-11-22T04:01:52;0.70;99.90
19152;DHT22;9708;53.114;9.388;2023-11-22T04:04:19;0.60;99.90
19152;DHT22;9708;53.114;9.388;2023-11-22T04:06:47;0.60;99.90
19152;DHT22;9708;53.114;9.388;2023-11-22T04:09:15;0.60;99.90
19152;DHT22;9708;53.114;9.388;2023-11-22T04:11:43;0.60;99.90
19152;DHT22;9708;53.114;9.388;2023-11-22T04:14:10;0.70;99.90
19152;DHT22;9708;53.114;9.388;2023-11-22T04:16:37;0.70;99.90
19152;DHT22;9708;53.114;9.388;2023-11-22T04:19:03;0.70;99.90
19152;DHT22;9708;53.114;9.388;2023-11-22T04:21:30;0.70;99.90
19152;DHT22;9708;53.114;9.388;2023-11-22T04:23:58;0.70;99.90
19152;DHT22;9708;53.114;9.388;2023-11-22T04:26:25;0.60;99.90
19152;DHT22;9708;53.114;9.388;2023-11-22T04:28:52;0.60;99.90
19152;DHT22;9708;53.114;9.388;2023-11-22T04:31:18;0.60;99.90
19152;DHT22;9708;53.114;9.388;2023-11-22T04:33:45;0.50;99.90
19152;DHT22;9708;53.114;9.388;2023-11-22T04:36:12;0.50;99.90
19152;DHT22;9708;53.114;9.388;2023-11-22T04:38:39;0.50;99.90
19152;DHT22;9708;53.114;9.388;2023-11-22T04:41:07;0.50;99.90
19152;DHT22;9708;53.114;9.388;2023-11-22T04:43:34;0.40;99.90
19152;DHT22;9708;53.114;9.388;2023-11-22T04:46:02;0.40;99.90
19152;DHT22;9708;53.114;9.388;2023-11-22T04:48:29;0.40;99.90
19152;DHT22;9708;53.114;9.388;2023-11-22T04:50:56;0.40;99.90
19152;DHT22;9708;53.114;9.388;2023-11-22T04:53:23;0.40;99.90
19152;DHT22;9708;53.114;9.388;2023-11-22T04:55:50;0.40;99.90
19152;DHT22;9708;53.114;9.388;2023-11-22T04:58:18;0.40;99.90
19152;DHT22;9708;53.114;9.388;2023-11-22T05:00:45;0.40;99.90
19152;DHT22;9708;53.114;9.388;2023-11-22T05:03:12;0.20;99.90
19152;DHT22;9708;53.114;9.388;2023-11-22T05:05:38;0.20;99.90
19152;DHT22;9708;53.114;9.388;2023-11-22T05:08:05;0.20;99.90
19152;DHT22;9708;53.114;9.388;2023-11-22T05:10:32;0.20;99.90
19152;DHT22;9708;53.114;9.388;2023-11-22T05:12:59;0.30;99.90
19152;DHT22;9708;53.114;9.388;2023-11-22T05:15:28;0.20;99.90
19152;DHT22;9708;53.114;9.388;2023-11-22T05:17:54;0.30;99.90
19152;DHT22;9708;53.114;9.388;2023-11-22T05:20:21;0.30;99.90
19152;DHT22;9708;53.114;9.388;2023-11-22T05:22:48;0.30;99.90
19152;DHT22;9708;53.114;9.388;2023-11-22T05:25:15;0.30;99.90
19152;DHT22;9708;53.114;9.388;2023-11-22T05:27:42;0.30;99.90
19152;DHT22;9708;53.114;9.388;2023-11-22T05:30:10;0.20;99.90
19152;DHT22;9708;53.114;9.388;2023-11-22T05:32:38;0.00;99.90
19152;DHT22;9708;53.114;9.388;2023-11-22T05:35:06;0.10;99.90
19152;DHT22;9708;53.114;9.388;2023-11-22T05:37:35;0.20;99.90
19152;DHT22;9708;53.114;9.388;2023-11-22T05:40:02;0.30;99.90
19152;DHT22;9708;53.114;9.388;2023-11-22T05:42:30;0.30;99.90
19152;DHT22;9708;53.114;9.388;2023-11-22T05:44:58;0.30;99.90
19152;DHT22;9708;53.114;9.388;2023-11-22T05:47:24;0.30;99.90
19152;DHT22;9708;53.114;9.388;2023-11-22T05:49:53;0.40;99.90
19152;DHT22;9708;53.114;9.388;2023-11-22T05:52:20;0.30;99.90
19152;DHT22;9708;53.114;9.388;2023-11-22T05:54:48;0.30;99.90
19152;DHT22;9708;53.114;9.388;2023-11-22T05:57:15;0.30;99.90
19152;DHT22;9708;53.114;9.388;2023-11-22T05:59:45;0.40;99.90
19152;DHT22;9708;53.114;9.388;2023-11-22T06:02:13;0.40;99.90
19152;DHT22;9708;53.114;9.388;2023-11-22T06:04:39;0.40;99.90
19152;DHT22;9708;53.114;9.388;2023-11-22T06:07:08;0.40;99.90
19152;DHT22;9708;53.114;9.388;2023-11-22T06:09:35;0.30;99.90
19152;DHT22;9708;53.114;9.388;2023-11-22T06:12:03;0.30;99.90
19152;DHT22;9708;53.114;9.388;2023-11-22T06:14:29;0.40;99.90
19152;DHT22;9708;53.114;9.388;2023-11-22T06:16:56;0.40;99.90
19152;DHT22;9708;53.114;9.388;2023-11-22T06:19:23;0.40;99.90
19152;DHT22;9708;53.114;9.388;2023-11-22T06:21:50;0.40;99.90
19152;DHT22;9708;53.114;9.388;2023-11-22T06:24:18;0.40;99.90
19152;DHT22;9708;53.114;9.388;2023-11-22T06:26:45;0.40;99.90
19152;DHT22;9708;53.114;9.388;2023-11-22T06:29:12;0.40;99.90
19152;DHT22;9708;53.114;9.388;2023-11-22T06:31:40;0.40;99.90
19152;DHT22;9708;53.114;9.388;2023-11-22T06:34:06;0.40;99.90
19152;DHT22;9708;53.114;9.388;2023-11-22T06:36:33;0.40;99.90
19152;DHT22;9708;53.114;9.388;2023-11-22T06:39:00;0.40;99.90
19152;DHT22;9708;53.114;9.388;2023-11-22T06:41:28;0.40;99.90
19152;DHT22;9708;53.114;9.388;2023-11-22T06:43:55;0.40;99.90
19152;DHT22;9708;53.114;9.388;2023-11-22T06:46:23;0.40;99.90
19152;DHT22;9708;53.114;9.388;2023-11-22T06:48:50;0.50;99.90
19152;DHT22;9708;53.114;9.388;2023-11-22T06:51:16;0.50;99.90
19152;DHT22;9708;53.114;9.388;2023-11-22T06:53:43;0.50;99.90
19152;DHT22;9708;53.114;9.388;2023-11-22T06:56:10;0.50;99.90
19152;DHT22;9708;53.114;9.388;2023-11-22T06:58:39;0.50;99.90
19152;DHT22;9708;53.114;9.388;2023-11-22T07:01:06;0.50;99.90
19152;DHT22;9708;53.114;9.388;2023-11-22T07:03:35;0.60;99.90
19152;DHT22;9708;53.114;9.388;2023-11-22T07:06:03;0.60;99.90
19152;DHT22;9708;53.114;9.388;2023-11-22T07:08:30;0.60;99.90
19152;DHT22;9708;53.114;9.388;2023-11-22T07:10:57;0.70;99.90
19152;DHT22;9708;53.114;9.388;2023-11-22T07:13:23;0.60;99.90
19152;DHT22;9708;53.114;9.388;2023-11-22T07:15:53;0.50;99.90
19152;DHT22;9708;53.114;9.388;2023-11-22T07:18:20;0.60;99.90
19152;DHT22;9708;53.114;9.388;2023-11-22T07:20:49;0.70;99.90
19152;DHT22;9708;53.114;9.388;2023-11-22T07:23:19;0.80;99.90
19152;DHT22;9708;53.114;9.388;2023-11-22T07:25:46;0.80;99.90
19152;DHT22;9708;53.114;9.388;2023-11-22T07:28:13;0.90;99.90
19152;DHT22;9708;53.114;9.388;2023-11-22T07:30:40;0.90;99.90
19152;DHT22;9708;53.114;9.388;2023-11-22T07:33:08;1.00;99.90
19152;DHT22;9708;53.114;9.388;2023-11-22T07:35:36;1.00;99.90
19152;DHT22;9708;53.114;9.388;2023-11-22T07:38:04;1.00;99.90
19152;DHT22;9708;53.114;9.388;2023-11-22T07:40:33;1.00;99.90
19152;DHT22;9708;53.114;9.388;2023-11-22T07:43:00;1.10;99.90
19152;DHT22;9708;53.114;9.388;2023-11-22T07:45:30;1.10;99.90
19152;DHT22;9708;53.114;9.388;2023-11-22T07:47:57;1.10;99.90
19152;DHT22;9708;53.114;9.388;2023-11-22T07:50:26;1.10;99.90
19152;DHT22;9708;53.114;9.388;2023-11-22T07:52:53;1.20;99.90
19152;DHT22;9708;53.114;9.388;2023-11-22T07:55:20;1.20;99.90
19152;DHT22;9708;53.114;9.388;2023-11-22T07:57:48;1.20;99.90
19152;DHT22;9708;53.114;9.388;2023-11-22T08:00:16;1.20;99.90
19152;DHT22;9708;53.114;9.388;2023-11-22T08:02:45;1.30;99.90
19152;DHT22;9708;53.114;9.388;2023-11-22T08:05:11;1.30;99.90
19152;DHT22;9708;53.114;9.388;2023-11-22T08:07:42;1.40;99.90
19152;DHT22;9708;53.114;9.388;2023-11-22T08:10:11;1.50;99.90
19152;DHT22;9708;53.114;9.388;2023-11-22T08:12:44;1.50;99.90
19152;DHT22;9708;53.114;9.388;2023-11-22T08:15:13;1.60;99.90
19152;DHT22;9708;53.114;9.388;2023-11-22T08:17:40;1.60;99.90
19152;DHT22;9708;53.114;9.388;2023-11-22T08:20:08;1.70;99.90
19152;DHT22;9708;53.114;9.388;2023-11-22T08:22:43;1.80;99.90
19152;DHT22;9708;53.114;9.388;2023-11-22T08:25:11;1.90;99.90
19152;DHT22;9708;53.114;9.388;2023-11-22T08:27:38;1.90;99.90
19152;DHT22;9708;53.114;9.388;2023-11-22T08:30:07;2.00;99.90
19152;DHT22;9708;53.114;9.388;2023-11-22T08:32:39;2.00;99.90
19152;DHT22;9708;53.114;9.388;2023-11-22T08:35:07;2.10;99.90
19152;DHT22;9708;53.114;9.388;2023-11-22T08:37:34;2.10;99.90
19152;DHT22;9708;53.114;9.388;2023-11-22T08:40:06;2.10;99.90
19152;DHT22;9708;53.114;9.388;2023-11-22T08:42:33;2.20;99.90
19152;DHT22;9708;53.114;9.388;2023-11-22T08:45:00;2.30;99.90
19152;DHT22;9708;53.114;9.388;2023-11-22T08:47:27;2.30;99.90
19152;DHT22;9708;53.114;9.388;2023-11-22T08:49:54;2.30;99.90
19152;DHT22;9708;53.114;9.388;2023-11-22T08:52:21;2.30;99.90
19152;DHT22;9708;53.114;9.388;2023-11-22T08:54:48;2.40;99.90
19152;DHT22;9708;53.114;9.388;2023-11-22T08:57:18;2.60;99.90
19152;DHT22;9708;53.114;9.388;2023-11-22T08:59:46;2.50;99.90
19152;DHT22;9708;53.114;9.388;2023-11-22T09:02:13;2.60;99.90
19152;DHT22;9708;53.114;9.388;2023-11-22T09:04:40;2.60;99.90
19152;DHT22;9708;53.114;9.388;2023-11-22T09:07:07;2.70;99.90
19152;DHT22;9708;53.114;9.388;2023-11-22T09:09:36;2.70;99.90
19152;DHT22;9708;53.114;9.388;2023-11-22T09:12:03;2.80;99.90
19152;DHT22;9708;53.114;9.388;2023-11-22T09:14:39;2.80;99.90
19152;DHT22;9708;53.114;9.388;2023-11-22T09:17:07;2.80;99.90
19152;DHT22;9708;53.114;9.388;2023-11-22T09:19:35;2.90;99.90
19152;DHT22;9708;53.114;9.388;2023-11-22T09:22:02;3.00;99.90
19152;DHT22;9708;53.114;9.388;2023-11-22T09:24:31;3.10;99.90
19152;DHT22;9708;53.114;9.388;2023-11-22T09:26:58;3.10;99.90
19152;DHT22;9708;53.114;9.388;2023-11-22T09:29:28;3.00;99.90
19152;DHT22;9708;53.114;9.388;2023-11-22T09:31:56;3.20;99.90
19152;DHT22;9708;53.114;9.388;2023-11-22T09:34:23;3.20;99.90
19152;DHT22;9708;53.114;9.388;2023-11-22T09:36:50;3.30;99.90
19152;DHT22;9708;53.114;9.388;2023-11-22T09:39:17;3.30;99.90
19152;DHT22;9708;53.114;9.388;2023-11-22T09:41:46;3.30;99.90
19152;DHT22;9708;53.114;9.388;2023-11-22T09:44:13;3.30;99.90
19152;DHT22;9708;53.114;9.388;2023-11-22T09:46:42;3.40;99.90
19152;DHT22;9708;53.114;9.388;2023-11-22T09:49:15;3.50;99.90
19152;DHT22;9708;53.114;9.388;2023-11-22T09:51:44;3.60;99.90
19152;DHT22;9708;53.114;9.388;2023-11-22T09:54:13;3.80;99.90
19152;DHT22;9708;53.114;9.388;2023-11-22T09:56:40;3.80;99.90
19152;DHT22;9708;53.114;9.388;2023-11-22T09:59:16;3.90;99.90
19152;DHT22;9708;53.114;9.388;2023-11-22T10:01:45;3.90;99.90
19152;DHT22;9708;53.114;9.388;2023-11-22T10:04:13;4.00;99.90
19152;DHT22;9708;53.114;9.388;2023-11-22T10:06:40;4.10;99.90
19152;DHT22;9708;53.114;9.388;2023-11-22T10:09:11;4.20;99.90
19152;DHT22;9708;53.114;9.388;2023-11-22T10:11:39;4.30;99.90
19152;DHT22;9708;53.114;9.388;2023-11-22T10:14:09;4.30;99.90
19152;DHT22;9708;53.114;9.388;2023-11-22T10:16:35;4.30;99.90
19152;DHT22;9708;53.114;9.388;2023-11-22T10:19:04;4.40;99.90
19152;DHT22;9708;53.114;9.388;2023-11-22T10:21:33;4.40;99.90
19152;DHT22;9708;53.114;9.388;2023-11-22T10:24:02;4.30;99.90
19152;DHT22;9708;53.114;9.388;2023-11-22T10:26:29;4.30;99.90
19152;DHT22;9708;53.114;9.388;2023-11-22T10:28:57;4.20;99.90
19152;DHT22;9708;53.114;9.388;2023-11-22T10:31:24;4.20;99.90
19152;DHT22;9708;53.114;9.388;2023-11-22T10:33:51;4.50;99.90
19152;DHT22;9708;53.114;9.388;2023-11-22T10:36:19;4.50;99.90
19152;DHT22;9708;53.114;9.388;2023-11-22T10:38:48;4.50;99.90
19152;DHT22;9708;53.114;9.388;2023-11-22T10:41:16;4.50;99.90
19152;DHT22;9708;53.114;9.388;2023-11-22T10:43:44;4.60;99.90
19152;DHT22;9708;53.114;9.388;2023-11-22T10:46:13;4.50;99.90
19152;DHT22;9708;53.114;9.388;2023-11-22T10:48:40;4.40;99.90
19152;DHT22;9708;53.114;9.388;2023-11-22T10:51:11;4.50;99.90
19152;DHT22;9708;53.114;9.388;2023-11-22T10:53:47;4.60;99.90
19152;DHT22;9708;53.114;9.388;2023-11-22T10:56:16;4.60;99.90
19152;DHT22;9708;53.114;9.388;2023-11-22T10:58:46;4.60;99.90
19152;DHT22;9708;53.114;9.388;2023-11-22T11:01:15;4.70;99.90
19152;DHT22;9708;53.114;9.388;2023-11-22T11:03:46;4.70;99.90
19152;DHT22;9708;53.114;9.388;2023-11-22T11:06:20;4.80;99.90
19152;DHT22;9708;53.114;9.388;2023-11-22T11:08:50;4.80;99.90
19152;DHT22;9708;53.114;9.388;2023-11-22T11:11:17;5.00;99.90
19152;DHT22;9708;53.114;9.388;2023-11-22T11:13:45;4.90;99.90
19152;DHT22;9708;53.114;9.388;2023-11-22T11:16:13;4.90;99.90
19152;DHT22;9708;53.114;9.388;2023-11-22T11:18:41;4.90;99.90
19152;DHT22;9708;53.114;9.388;2023-11-22T11:21:09;4.90;99.90
19152;DHT22;9708;53.114;9.388;2023-11-22T11:23:39;5.10;99.90
19152;DHT22;9708;53.114;9.388;2023-11-22T11:26:15;5.10;99.90
19152;DHT22;9708;53.114;9.388;2023-11-22T11:28:44;5.20;99.90
19152;DHT22;9708;53.114;9.388;2023-11-22T11:31:13;5.30;99.90
19152;DHT22;9708;53.114;9.388;2023-11-22T11:33:56;5.30;99.90
19152;DHT22;9708;53.114;9.388;2023-11-22T11:36:25;5.40;99.90
19152;DHT22;9708;53.114;9.388;2023-11-22T11:38:53;5.40;99.90
19152;DHT22;9708;53.114;9.388;2023-11-22T11:41:25;5.30;99.90
19152;DHT22;9708;53.114;9.388;2023-11-22T11:43:53;5.70;99.90
19152;DHT22;9708;53.114;9.388;2023-11-22T11:46:20;6.20;99.90
19152;DHT22;9708;53.114;9.388;2023-11-22T11:48:49;6.20;99.90
19152;DHT22;9708;53.114;9.388;2023-11-22T11:51:16;6.50;99.90
19152;DHT22;9708;53.114;9.388;2023-11-22T11:53:44;6.90;99.90
19152;DHT22;9708;53.114;9.388;2023-11-22T11:56:11;6.70;99.90
19152;DHT22;9708;53.114;9.388;2023-11-22T11:58:41;6.60;99.90
19152;DHT22;9708;53.114;9.388;2023-11-22T12:01:09;6.70;99.90
19152;DHT22;9708;53.114;9.388;2023-11-22T12:03:36;6.80;99.90
19152;DHT22;9708;53.114;9.388;2023-11-22T12:06:04;6.70;99.90
19152;DHT22;9708;53.114;9.388;2023-11-22T12:08:31;6.80;99.90
19152;DHT22;9708;53.114;9.388;2023-11-22T12:11:02;6.50;99.90
19152;DHT22;9708;53.114;9.388;2023-11-22T12:13:29;6.00;99.90
19152;DHT22;9708;53.114;9.388;2023-11-22T12:15:58;6.10;99.90
19152;DHT22;9708;53.114;9.388;2023-11-22T12:18:24;5.50;99.90
19152;DHT22;9708;53.114;9.388;2023-11-22T12:20:55;5.50;99.90
19152;DHT22;9708;53.114;9.388;2023-11-22T12:23:23;5.50;99.90
19152;DHT22;9708;53.114;9.388;2023-11-22T12:25:54;5.40;99.90
19152;DHT22;9708;53.114;9.388;2023-11-22T12:28:23;5.40;99.90
19152;DHT22;9708;53.114;9.388;2023-11-22T12:30:50;5.20;99.90
19152;DHT22;9708;53.114;9.388;2023-11-22T12:33:19;5.20;99.90
19152;DHT22;9708;53.114;9.388;2023-11-22T12:35:46;5.10;99.90
19152;DHT22;9708;53.114;9.388;2023-11-22T12:38:14;5.00;99.90
19152;DHT22;9708;53.114;9.388;2023-11-22T12:40:44;5.00;99.90
19152;DHT22;9708;53.114;9.388;2023-11-22T12:43:13;5.10;99.90
19152;DHT22;9708;53.114;9.388;2023-11-22T12:45:40;5.00;99.90
19152;DHT22;9708;53.114;9.388;2023-11-22T12:48:23;5.10;99.90
19152;DHT22;9708;53.114;9.388;2023-11-22T12:50:50;5.30;99.90
19152;DHT22;9708;53.114;9.388;2023-11-22T12:53:17;5.10;99.90
19152;DHT22;9708;53.114;9.388;2023-11-22T12:55:47;5.10;99.90
19152;DHT22;9708;53.114;9.388;2023-11-22T12:58:14;5.00;99.90
19152;DHT22;9708;53.114;9.388;2023-11-22T13:00:43;5.10;99.90
19152;DHT22;9708;53.114;9.388;2023-11-22T13:03:10;5.10;99.90
19152;DHT22;9708;53.114;9.388;2023-11-22T13:05:38;5.10;99.90
19152;DHT22;9708;53.114;9.388;2023-11-22T13:08:05;4.90;99.90
19152;DHT22;9708;53.114;9.388;2023-11-22T13:10:32;4.80;99.90
19152;DHT22;9708;53.114;9.388;2023-11-22T13:12:59;4.80;99.90
19152;DHT22;9708;53.114;9.388;2023-11-22T13:15:26;5.00;99.90
19152;DHT22;9708;53.114;9.388;2023-11-22T13:17:53;5.00;99.90
19152;DHT22;9708;53.114;9.388;2023-11-22T13:20:22;5.10;99.90
19152;DHT22;9708;53.114;9.388;2023-11-22T13:22:50;5.10;99.90
19152;DHT22;9708;53.114;9.388;2023-11-22T13:25:17;5.10;99.90
19152;DHT22;9708;53.114;9.388;2023-11-22T13:27:44;5.10;99.90
19152;DHT22;9708;53.114;9.388;2023-11-22T13:30:12;5.20;99.90
19152;DHT22;9708;53.114;9.388;2023-11-22T13:32:40;5.10;99.90
19152;DHT22;9708;53.114;9.388;2023-11-22T13:35:08;5.00;99.90
19152;DHT22;9708;53.114;9.388;2023-11-22T13:37:43;4.90;99.90
19152;DHT22;9708;53.114;9.388;2023-11-22T13:40:13;5.00;99.90
19152;DHT22;9708;53.114;9.388;2023-11-22T13:42:45;4.90;99.90
19152;DHT22;9708;53.114;9.388;2023-11-22T13:45:13;4.90;99.90
19152;DHT22;9708;53.114;9.388;2023-11-22T13:47:43;4.90;99.90
19152;DHT22;9708;53.114;9.388;2023-11-22T13:50:10;4.90;99.90
19152;DHT22;9708;53.114;9.388;2023-11-22T13:52:39;4.70;99.90
19152;DHT22;9708;53.114;9.388;2023-11-22T13:55:07;4.80;99.90
19152;DHT22;9708;53.114;9.388;2023-11-22T13:57:38;4.70;99.90
19152;DHT22;9708;53.114;9.388;2023-11-22T14:00:06;4.80;99.90
19152;DHT22;9708;53.114;9.388;2023-11-22T14:02:37;4.70;99.90
19152;DHT22;9708;53.114;9.388;2023-11-22T14:05:05;4.70;99.90
19152;DHT22;9708;53.114;9.388;2023-11-22T14:07:34;4.60;99.90
19152;DHT22;9708;53.114;9.388;2023-11-22T14:10:01;4.50;99.90
19152;DHT22;9708;53.114;9.388;2023-11-22T14:12:31;4.60;99.90
19152;DHT22;9708;53.114;9.388;2023-11-22T14:15:00;4.50;99.90
19152;DHT22;9708;53.114;9.388;2023-11-22T14:17:26;4.50;99.90
19152;DHT22;9708;53.114;9.388;2023-11-22T14:19:53;4.50;99.90
19152;DHT22;9708;53.114;9.388;2023-11-22T14:22:21;4.40;99.90
19152;DHT22;9708;53.114;9.388;2023-11-22T14:24:48;4.30;99.90
19152;DHT22;9708;53.114;9.388;2023-11-22T14:27:15;4.40;99.90
19152;DHT22;9708;53.114;9.388;2023-11-22T14:29:42;4.30;99.90
19152;DHT22;9708;53.114;9.388;2023-11-22T14:32:14;4.40;99.90
19152;DHT22;9708;53.114;9.388;2023-11-22T14:34:41;4.30;99.90
19152;DHT22;9708;53.114;9.388;2023-11-22T14:37:10;4.30;99.90
19152;DHT22;9708;53.114;9.388;2023-11-22T14:39:37;4.30;99.90
19152;DHT22;9708;53.114;9.388;2023-11-22T14:42:03;4.30;99.90
19152;DHT22;9708;53.114;9.388;2023-11-22T14:44:31;4.20;99.90
19152;DHT22;9708;53.114;9.388;2023-11-22T14:46:58;4.20;99.90
19152;DHT22;9708;53.114;9.388;2023-11-22T14:49:26;4.10;99.90
19152;DHT22;9708;53.114;9.388;2023-11-22T14:51:53;4.20;99.90
19152;DHT22;9708;53.114;9.388;2023-11-22T14:54:20;4.10;99.90
19152;DHT22;9708;53.114;9.388;2023-11-22T14:56:47;4.00;99.90
19152;DHT22;9708;53.114;9.388;2023-11-22T14:59:15;3.90;99.90
19152;DHT22;9708;53.114;9.388;2023-11-22T15:01:42;3.90;99.90
19152;DHT22;9708;53.114;9.388;2023-11-22T15:04:11;3.90;99.90
19152;DHT22;9708;53.114;9.388;2023-11-22T15:06:40;3.90;99.90
19152;DHT22;9708;53.114;9.388;2023-11-22T15:09:09;3.90;99.90
19152;DHT22;9708;53.114;9.388;2023-11-22T15:11:40;3.80;99.90
19152;DHT22;9708;53.114;9.388;2023-11-22T15:14:07;3.90;99.90
19152;DHT22;9708;53.114;9.388;2023-11-22T15:16:34;3.90;99.90
19152;DHT22;9708;53.114;9.388;2023-11-22T15:19:03;3.90;99.90
19152;DHT22;9708;53.114;9.388;2023-11-22T15:21:32;3.90;99.90
19152;DHT22;9708;53.114;9.388;2023-11-22T15:24:00;3.90;99.90
19152;DHT22;9708;53.114;9.388;2023-11-22T15:26:29;3.80;99.90
19152;DHT22;9708;53.114;9.388;2023-11-22T15:28:55;3.80;99.90
19152;DHT22;9708;53.114;9.388;2023-11-22T15:31:22;3.70;99.90
19152;DHT22;9708;53.114;9.388;2023-11-22T15:33:49;3.80;99.90
19152;DHT22;9708;53.114;9.388;2023-11-22T15:36:19;3.80;99.90
19152;DHT22;9708;53.114;9.388;2023-11-22T15:38:46;3.70;99.90
19152;DHT22;9708;53.114;9.388;2023-11-22T15:41:15;3.70;99.90
19152;DHT22;9708;53.114;9.388;2023-11-22T15:43:42;3.70;99.90
19152;DHT22;9708;53.114;9.388;2023-11-22T15:46:10;3.70;99.90
19152;DHT22;9708;53.114;9.388;2023-11-22T15:48:38;3.70;99.90
19152;DHT22;9708;53.114;9.388;2023-11-22T15:51:05;3.80;99.90
19152;DHT22;9708;53.114;9.388;2023-11-22T15:53:34;3.70;99.90
19152;DHT22;9708;53.114;9.388;2023-11-22T15:56:01;3.70;99.90
19152;DHT22;9708;53.114;9.388;2023-11-22T15:58:30;3.80;99.90
19152;DHT22;9708;53.114;9.388;2023-11-22T16:00:57;3.70;99.90
19152;DHT22;9708;53.114;9.388;2023-11-22T16:03:26;3.70;99.90
19152;DHT22;9708;53.114;9.388;2023-11-22T16:05:54;3.70;99.90